Time;durP1;ratioP1;P1;durP2;ratioP2;P2;SDS_P1;SDS_P2;PMS_P1;PMS_P2;Temp;Humidity;BMP_temperature;BMP_pressure;BME280_temperature;BME280_humidity;BME280_pressure;Samples;Min_cycle;Max_cycle;Signal;HPM_P1;HPM_P2
2023/07/29 00:02:13;;;;;;;4.70;2.70;;;;;;;;;;4351827;32;317093;-81
2023/07/29 00:04:39;;;;;;;5.10;2.30;;;;;;;;;;4353027;32;317045;-82
2023/07/29 00:07:06;;;;;;;3.42;2.42;;;;;;;;;;4343115;32;317191;-81
2023/07/29 00:09:33;;;;;;;3.28;2.50;;;;;;;;;;4351631;32;316570;-81
2023/07/29 00:12:01;;;;;;;4.32;2.78;;;;;;;;;;4350077;32;317325;-81
2023/07/29 00:14:27;;;;;;;5.28;3.20;;;;;;;;;;4342274;32;317682;-81
2023/07/29 00:16:54;;;;;;;3.50;2.37;;;;;;;;;;4328458;32;317389;-82
2023/07/29 00:19:23;;;;;;;3.87;2.62;;;;;;;;;;4336804;32;316499;-81
2023/07/29 00:21:50;;;;;;;4.80;2.90;;;;;;;;;;4327316;32;317547;-81
2023/07/29 00:24:16;;;;;;;6.28;3.00;;;;;;;;;;4337833;32;316400;-82
2023/07/29 00:26:43;;;;;;;3.08;2.47;;;;;;;;;;4338026;32;316686;-81
2023/07/29 00:29:11;;;;;;;3.87;2.65;;;;;;;;;;4336356;32;417765;-81
2023/07/29 00:31:38;;;;;;;4.45;2.65;;;;;;;;;;4337167;32;316734;-81
2023/07/29 00:34:04;;;;;;;2.97;2.15;;;;;;;;;;4328320;32;317007;-82
2023/07/29 00:36:31;;;;;;;3.00;2.22;;;;;;;;;;4338008;32;316576;-81
2023/07/29 00:38:58;;;;;;;7.30;2.58;;;;;;;;;;4326576;32;317386;-82
2023/07/29 00:41:25;;;;;;;7.55;2.30;;;;;;;;;;4337722;32;316605;-82
2023/07/29 00:43:52;;;;;;;4.03;2.83;;;;;;;;;;4328156;32;317065;-81
2023/07/29 00:46:21;;;;;;;4.20;2.22;;;;;;;;;;4336771;32;316651;-81
2023/07/29 00:48:48;;;;;;;3.60;2.40;;;;;;;;;;4325796;32;345669;-81
2023/07/29 00:51:15;;;;;;;3.75;2.85;;;;;;;;;;4339433;32;316751;-81
2023/07/29 00:53:41;;;;;;;3.50;2.22;;;;;;;;;;4340678;32;317480;-81
2023/07/29 00:56:08;;;;;;;4.37;2.47;;;;;;;;;;4345828;32;317340;-82
2023/07/29 00:58:35;;;;;;;3.22;2.45;;;;;;;;;;4354302;32;316660;-81
2023/07/29 01:01:02;;;;;;;3.60;2.67;;;;;;;;;;4344491;32;316932;-81
2023/07/29 01:03:30;;;;;;;7.37;2.22;;;;;;;;;;4355710;32;317378;-81
2023/07/29 01:06:07;;;;;;;4.10;2.17;;;;;;;;;;4344327;32;356285;-82
2023/07/29 01:08:44;;;;;;;4.28;2.72;;;;;;;;;;4353931;32;316370;-81
2023/07/29 01:11:22;;;;;;;8.07;2.78;;;;;;;;;;4341287;32;416479;-82
2023/07/29 01:13:54;;;;;;;4.35;2.90;;;;;;;;;;4345431;32;317146;-82
2023/07/29 01:16:25;;;;;;;4.80;1.83;;;;;;;;;;4355406;32;316945;-81
2023/07/29 01:18:56;;;;;;;3.22;2.35;;;;;;;;;;4345290;32;317292;-81
2023/07/29 01:21:23;;;;;;;5.28;2.55;;;;;;;;;;4354115;32;316783;-80
2023/07/29 01:23:54;;;;;;;6.03;2.20;;;;;;;;;;4344990;32;317372;-80
2023/07/29 01:26:21;;;;;;;3.78;2.58;;;;;;;;;;4354076;32;317297;-79
2023/07/29 01:28:48;;;;;;;3.80;2.03;;;;;;;;;;4341027;32;338961;-79
2023/07/29 01:31:21;;;;;;;2.80;2.17;;;;;;;;;;4355171;32;317110;-80
2023/07/29 01:33:54;;;;;;;3.05;2.40;;;;;;;;;;4343956;32;316591;-79
2023/07/29 01:36:24;;;;;;;8.38;2.62;;;;;;;;;;4355084;32;317372;-79
2023/07/29 01:38:55;;;;;;;2.37;2.17;;;;;;;;;;4343188;32;330882;-81
2023/07/29 01:41:23;;;;;;;6.00;3.17;;;;;;;;;;4353874;32;317238;-79
2023/07/29 01:43:50;;;;;;;6.57;2.78;;;;;;;;;;4356069;32;317360;-79
2023/07/29 01:46:17;;;;;;;6.00;2.28;;;;;;;;;;4358277;32;317063;-79
2023/07/29 01:48:44;;;;;;;4.70;2.62;;;;;;;;;;4354627;32;325338;-79
2023/07/29 01:51:13;;;;;;;3.15;2.78;;;;;;;;;;4342052;32;417743;-81
2023/07/29 01:53:39;;;;;;;3.95;2.62;;;;;;;;;;4354298;32;316392;-81
2023/07/29 01:56:07;;;;;;;5.97;2.47;;;;;;;;;;4343887;32;317274;-80
2023/07/29 01:58:34;;;;;;;6.25;2.85;;;;;;;;;;4353638;32;316658;-79
2023/07/29 02:01:01;;;;;;;3.12;2.42;;;;;;;;;;4343774;32;317395;-80
2023/07/29 02:03:28;;;;;;;4.20;2.72;;;;;;;;;;4354926;32;317469;-79
2023/07/29 02:05:54;;;;;;;4.53;2.90;;;;;;;;;;4344838;32;317243;-79
2023/07/29 02:08:21;;;;;;;10.10;2.90;;;;;;;;;;4352935;32;316676;-79
2023/07/29 02:10:48;;;;;;;4.20;2.70;;;;;;;;;;4342487;32;318340;-80
2023/07/29 02:13:16;;;;;;;7.75;3.30;;;;;;;;;;4349589;32;317486;-79
2023/07/29 02:15:44;;;;;;;3.08;2.45;;;;;;;;;;4338230;32;317120;-82
2023/07/29 02:18:10;;;;;;;7.53;3.10;;;;;;;;;;4338972;32;417896;-81
2023/07/29 02:20:37;;;;;;;5.70;3.15;;;;;;;;;;4338820;32;317744;-81
2023/07/29 02:23:04;;;;;;;4.45;2.97;;;;;;;;;;4327753;32;333935;-81
2023/07/29 02:25:31;;;;;;;4.03;3.42;;;;;;;;;;4338547;32;316745;-80
2023/07/29 02:27:57;;;;;;;4.55;2.40;;;;;;;;;;4329526;32;317480;-81
2023/07/29 02:30:26;;;;;;;3.87;2.15;;;;;;;;;;4339437;32;317526;-80
2023/07/29 02:32:52;;;;;;;4.12;2.87;;;;;;;;;;4327664;32;317094;-81
2023/07/29 02:35:19;;;;;;;3.17;2.30;;;;;;;;;;4352700;32;316642;-80
2023/07/29 02:37:46;;;;;;;2.97;2.65;;;;;;;;;;4342579;32;317784;-79
2023/07/29 02:40:12;;;;;;;4.82;2.92;;;;;;;;;;4354039;32;317211;-79
2023/07/29 02:42:39;;;;;;;3.53;2.62;;;;;;;;;;4353432;32;316619;-79
2023/07/29 02:45:09;;;;;;;4.75;2.80;;;;;;;;;;4341973;32;317255;-79
2023/07/29 02:47:37;;;;;;;3.22;2.50;;;;;;;;;;4352632;32;317213;-79
2023/07/29 02:50:05;;;;;;;3.60;3.00;;;;;;;;;;4344260;32;316813;-79
2023/07/29 02:52:32;;;;;;;3.50;2.70;;;;;;;;;;4352381;32;316708;-78
2023/07/29 02:54:59;;;;;;;3.35;2.70;;;;;;;;;;4343890;32;317333;-79
2023/07/29 02:57:25;;;;;;;5.20;2.87;;;;;;;;;;4353650;32;317330;-79
2023/07/29 02:59:52;;;;;;;4.10;3.05;;;;;;;;;;4342840;32;316593;-78
2023/07/29 03:02:19;;;;;;;5.30;3.20;;;;;;;;;;4353434;32;316795;-79
2023/07/29 03:04:49;;;;;;;4.65;3.45;;;;;;;;;;4344198;32;317197;-81
2023/07/29 03:07:16;;;;;;;5.43;3.08;;;;;;;;;;4368317;32;317050;-81
2023/07/29 03:09:44;;;;;;;12.52;2.90;;;;;;;;;;4368176;32;316786;-80
2023/07/29 03:12:10;;;;;;;4.50;3.33;;;;;;;;;;4347493;32;419300;-78
2023/07/29 03:14:37;;;;;;;6.65;3.65;;;;;;;;;;4353435;32;316756;-79
2023/07/29 03:17:05;;;;;;;4.65;3.50;;;;;;;;;;4342074;32;317642;-78
2023/07/29 03:19:31;;;;;;;3.95;3.08;;;;;;;;;;4353847;32;316633;-78
2023/07/29 03:21:59;;;;;;;6.70;3.60;;;;;;;;;;4342466;32;317105;-80
2023/07/29 03:24:26;;;;;;;4.78;3.60;;;;;;;;;;4352634;32;316740;-79
2023/07/29 03:26:53;;;;;;;4.53;3.05;;;;;;;;;;4341627;32;344413;-79
2023/07/29 03:29:19;;;;;;;9.80;4.10;;;;;;;;;;4353356;32;316712;-78
2023/07/29 03:31:46;;;;;;;10.60;3.40;;;;;;;;;;4343403;32;317576;-78
2023/07/29 03:34:13;;;;;;;5.80;3.55;;;;;;;;;;4352165;32;318235;-78
2023/07/29 03:36:40;;;;;;;5.87;3.35;;;;;;;;;;4353272;32;316481;-78
2023/07/29 03:39:08;;;;;;;4.18;3.30;;;;;;;;;;4341555;32;317091;-79
2023/07/29 03:41:35;;;;;;;8.88;3.37;;;;;;;;;;4352158;32;317257;-79
2023/07/29 03:44:02;;;;;;;4.22;3.72;;;;;;;;;;4343396;32;317081;-79
2023/07/29 03:46:28;;;;;;;7.07;4.05;;;;;;;;;;4353471;32;317461;-79
2023/07/29 03:48:55;;;;;;;4.70;3.50;;;;;;;;;;4343412;32;317475;-77
2023/07/29 03:51:22;;;;;;;4.28;3.72;;;;;;;;;;4353859;32;316647;-77
2023/07/29 03:53:49;;;;;;;5.05;4.07;;;;;;;;;;4344082;32;316776;-84
2023/07/29 03:56:17;;;;;;;5.80;3.83;;;;;;;;;;4354399;32;317221;-79
2023/07/29 03:58:44;;;;;;;9.73;4.32;;;;;;;;;;4355554;32;324747;-82
2023/07/29 04:01:11;;;;;;;5.35;3.87;;;;;;;;;;4340052;32;416445;-78
2023/07/29 04:03:38;;;;;;;6.30;4.40;;;;;;;;;;4353516;32;317194;-79
2023/07/29 04:06:04;;;;;;;4.90;3.72;;;;;;;;;;4343512;32;317531;-80
2023/07/29 04:08:31;;;;;;;3.92;3.50;;;;;;;;;;4351372;32;317311;-79
2023/07/29 04:10:58;;;;;;;11.23;4.07;;;;;;;;;;4340720;32;354199;-82
2023/07/29 04:13:26;;;;;;;14.25;4.00;;;;;;;;;;4347553;32;317781;-78
2023/07/29 04:15:53;;;;;;;7.62;3.60;;;;;;;;;;4327214;32;318269;-78
2023/07/29 04:18:20;;;;;;;5.90;3.05;;;;;;;;;;4338208;32;317086;-79
2023/07/29 04:20:46;;;;;;;9.20;3.83;;;;;;;;;;4328792;32;317367;-78
2023/07/29 04:23:13;;;;;;;3.20;2.55;;;;;;;;;;4338529;32;317265;-83
2023/07/29 04:25:40;;;;;;;2.97;2.58;;;;;;;;;;4341173;32;317327;-79
2023/07/29 04:28:06;;;;;;;3.85;2.62;;;;;;;;;;4330972;32;317255;-79
2023/07/29 04:30:35;;;;;;;7.07;3.03;;;;;;;;;;4340140;32;317081;-78
2023/07/29 04:33:01;;;;;;;7.12;3.22;;;;;;;;;;4329358;32;316628;-79
2023/07/29 04:35:28;;;;;;;7.50;5.95;;;;;;;;;;4352271;32;317789;-80
2023/07/29 04:37:55;;;;;;;7.37;4.90;;;;;;;;;;4344455;32;317727;-83
2023/07/29 04:40:22;;;;;;;6.75;4.45;;;;;;;;;;4355680;32;316990;-81
2023/07/29 04:42:49;;;;;;;12.77;4.55;;;;;;;;;;4344772;32;316667;-79
2023/07/29 04:45:16;;;;;;;9.98;4.80;;;;;;;;;;4355865;32;318522;-82
2023/07/29 04:47:44;;;;;;;10.27;4.05;;;;;;;;;;4355677;32;316727;-79
2023/07/29 04:50:11;;;;;;;9.20;3.78;;;;;;;;;;4342830;32;417305;-80
2023/07/29 04:52:37;;;;;;;11.15;3.95;;;;;;;;;;4354155;32;316651;-80
2023/07/29 04:55:05;;;;;;;10.43;4.53;;;;;;;;;;4344259;32;325935;-79
2023/07/29 04:57:32;;;;;;;6.12;3.78;;;;;;;;;;4355194;32;317859;-79
2023/07/29 04:59:59;;;;;;;6.10;3.20;;;;;;;;;;4345817;32;317138;-78
2023/07/29 05:02:26;;;;;;;7.45;3.47;;;;;;;;;;4355680;32;316782;-79
2023/07/29 05:04:54;;;;;;;5.43;3.87;;;;;;;;;;4344760;32;316709;-78
2023/07/29 05:07:20;;;;;;;7.32;3.95;;;;;;;;;;4354945;32;316694;-81
2023/07/29 05:09:48;;;;;;;9.65;4.07;;;;;;;;;;4344471;32;317328;-79
2023/07/29 05:12:15;;;;;;;6.12;3.60;;;;;;;;;;4353755;32;316774;-78
2023/07/29 05:14:42;;;;;;;7.65;3.80;;;;;;;;;;4355255;32;317100;-79
2023/07/29 05:17:09;;;;;;;10.18;4.03;;;;;;;;;;4344933;32;317177;-78
2023/07/29 05:19:35;;;;;;;7.87;4.40;;;;;;;;;;4354411;32;318552;-79
2023/07/29 05:22:03;;;;;;;8.13;4.12;;;;;;;;;;4344701;32;331903;-79
2023/07/29 05:24:30;;;;;;;4.87;3.95;;;;;;;;;;4353969;32;316846;-79
2023/07/29 05:26:57;;;;;;;7.45;4.07;;;;;;;;;;4344954;32;317087;-79
2023/07/29 05:29:23;;;;;;;6.18;3.65;;;;;;;;;;4354914;32;317684;-78
2023/07/29 05:31:50;;;;;;;4.80;3.28;;;;;;;;;;4343866;32;317232;-79
2023/07/29 05:34:17;;;;;;;6.78;3.50;;;;;;;;;;4354700;32;317321;-80
2023/07/29 05:36:43;;;;;;;8.23;3.58;;;;;;;;;;4354001;32;317153;-79
2023/07/29 05:39:13;;;;;;;9.38;3.80;;;;;;;;;;4340985;32;417773;-79
2023/07/29 05:41:39;;;;;;;4.57;3.60;;;;;;;;;;4353562;32;317180;-81
2023/07/29 05:44:06;;;;;;;6.25;3.45;;;;;;;;;;4343165;32;331794;-81
2023/07/29 05:46:33;;;;;;;9.02;3.87;;;;;;;;;;4355069;32;317283;-79
2023/07/29 05:48:59;;;;;;;6.07;3.85;;;;;;;;;;4344226;32;317451;-82
2023/07/29 05:51:26;;;;;;;6.72;3.50;;;;;;;;;;4352016;32;317506;-80
2023/07/29 05:53:53;;;;;;;5.62;3.85;;;;;;;;;;4344542;32;317428;-82
2023/07/29 05:56:21;;;;;;;6.32;3.85;;;;;;;;;;4361530;32;316562;-80
2023/07/29 05:58:48;;;;;;;4.95;3.42;;;;;;;;;;4344956;32;316521;-81
2023/07/29 06:01:14;;;;;;;5.75;3.90;;;;;;;;;;4353354;32;317678;-80
2023/07/29 06:03:41;;;;;;;4.20;3.28;;;;;;;;;;4352654;32;357336;-78
2023/07/29 06:06:08;;;;;;;27.58;4.28;;;;;;;;;;4344305;32;317374;-79
2023/07/29 06:08:35;;;;;;;5.62;3.35;;;;;;;;;;4353101;32;317783;-84
2023/07/29 06:11:01;;;;;;;5.25;3.28;;;;;;;;;;4343498;32;317351;-89
2023/07/29 06:13:29;;;;;;;4.57;3.15;;;;;;;;;;4346023;32;316572;-92
2023/07/29 06:15:56;;;;;;;8.13;3.97;;;;;;;;;;4327381;32;317572;-82
2023/07/29 06:18:23;;;;;;;7.47;3.12;;;;;;;;;;4339219;32;317309;-81
2023/07/29 06:20:50;;;;;;;9.48;3.35;;;;;;;;;;4329949;32;317520;-82
2023/07/29 06:23:16;;;;;;;5.68;2.75;;;;;;;;;;4345792;32;316997;-81
2023/07/29 06:25:43;;;;;;;8.48;3.40;;;;;;;;;;4350205;32;356274;-82
2023/07/29 06:28:10;;;;;;;4.25;2.87;;;;;;;;;;4337563;32;417961;-82
2023/07/29 06:30:38;;;;;;;4.68;3.22;;;;;;;;;;4360152;32;317379;-82
2023/07/29 06:33:05;;;;;;;3.30;2.87;;;;;;;;;;4356003;32;350988;-82
2023/07/29 06:35:32;;;;;;;10.23;3.80;;;;;;;;;;4367222;32;316676;-84
2023/07/29 06:37:58;;;;;;;3.62;2.87;;;;;;;;;;4357161;32;318601;-83
2023/07/29 06:40:26;;;;;;;3.80;2.90;;;;;;;;;;4367926;32;316612;-84
2023/07/29 06:42:52;;;;;;;4.45;3.30;;;;;;;;;;4359106;32;316534;-83
2023/07/29 06:45:19;;;;;;;4.65;3.40;;;;;;;;;;4367233;32;317282;-84
2023/07/29 06:47:47;;;;;;;10.02;3.67;;;;;;;;;;4359031;32;316607;-87
2023/07/29 06:50:14;;;;;;;9.48;3.40;;;;;;;;;;4368765;32;318365;-88
2023/07/29 06:52:41;;;;;;;5.18;3.30;;;;;;;;;;4356228;32;316609;-86
2023/07/29 06:55:08;;;;;;;11.02;3.50;;;;;;;;;;4333840;32;316670;-87
2023/07/29 06:57:35;;;;;;;6.65;4.03;;;;;;;;;;4338921;32;318613;-87
2023/07/29 07:00:02;;;;;;;5.00;3.22;;;;;;;;;;4329168;32;316748;-84
2023/07/29 07:02:29;;;;;;;4.32;3.28;;;;;;;;;;4341555;32;316811;-88
2023/07/29 07:04:57;;;;;;;4.47;3.12;;;;;;;;;;4343470;32;317244;-89
2023/07/29 07:07:24;;;;;;;6.82;3.10;;;;;;;;;;4366780;32;317474;-86
2023/07/29 07:09:51;;;;;;;6.62;3.30;;;;;;;;;;4358790;32;317314;-86
2023/07/29 07:12:17;;;;;;;4.95;3.47;;;;;;;;;;4358273;32;316904;-88
2023/07/29 07:14:44;;;;;;;6.68;3.97;;;;;;;;;;4351636;32;340144;-85
2023/07/29 07:17:11;;;;;;;6.70;3.72;;;;;;;;;;4340601;32;416371;-86
2023/07/29 07:19:37;;;;;;;6.85;3.10;;;;;;;;;;4353506;32;316961;-85
2023/07/29 07:22:08;;;;;;;5.93;3.17;;;;;;;;;;4344115;32;334145;-93
2023/07/29 07:24:35;;;;;;;4.78;3.45;;;;;;;;;;4354383;32;317426;-88
2023/07/29 07:27:02;;;;;;;10.20;3.45;;;;;;;;;;4336045;32;317833;-89
2023/07/29 07:29:29;;;;;;;11.43;3.28;;;;;;;;;;4339509;32;317795;-82
2023/07/29 07:31:57;;;;;;;4.95;3.85;;;;;;;;;;4337301;32;318424;-89
2023/07/29 07:34:24;;;;;;;5.50;3.10;;;;;;;;;;4337285;32;317366;-89
2023/07/29 07:36:50;;;;;;;8.32;4.15;;;;;;;;;;4326795;32;317227;-82
2023/07/29 07:39:19;;;;;;;4.35;3.33;;;;;;;;;;4346301;32;334062;-82
2023/07/29 07:41:46;;;;;;;5.15;3.22;;;;;;;;;;4342964;32;317121;-84
2023/07/29 07:44:15;;;;;;;7.18;3.92;;;;;;;;;;4351872;32;316672;-84
2023/07/29 07:46:42;;;;;;;13.00;4.05;;;;;;;;;;4351718;32;317712;-81
2023/07/29 07:49:08;;;;;;;9.38;3.72;;;;;;;;;;4341082;32;318490;-82
2023/07/29 07:51:35;;;;;;;10.32;4.03;;;;;;;;;;4355956;32;317104;-88
2023/07/29 07:54:02;;;;;;;9.07;3.87;;;;;;;;;;4355628;32;317631;-85
2023/07/29 07:56:30;;;;;;;13.43;4.25;;;;;;;;;;4352631;32;317255;-80
2023/07/29 07:58:57;;;;;;;5.20;3.83;;;;;;;;;;4342695;32;318371;-80
2023/07/29 08:01:23;;;;;;;8.07;4.25;;;;;;;;;;4350821;32;317863;-80
2023/07/29 08:03:50;;;;;;;8.88;4.12;;;;;;;;;;4342091;32;317211;-81
2023/07/29 08:06:17;;;;;;;5.85;3.42;;;;;;;;;;4362429;32;316610;-80
2023/07/29 08:08:43;;;;;;;6.60;3.60;;;;;;;;;;4352065;32;317169;-80
2023/07/29 08:11:10;;;;;;;8.63;3.08;;;;;;;;;;4338148;32;418149;-82
2023/07/29 08:13:38;;;;;;;5.57;3.05;;;;;;;;;;4347507;32;317186;-80
2023/07/29 08:16:05;;;;;;;9.05;4.47;;;;;;;;;;4328802;32;317129;-81
2023/07/29 08:18:32;;;;;;;13.32;4.03;;;;;;;;;;4337300;32;316686;-83
2023/07/29 08:21:02;;;;;;;36.35;5.50;;;;;;;;;;4339272;32;337965;-82
2023/07/29 08:23:30;;;;;;;6.78;3.00;;;;;;;;;;4352956;32;317772;-83
2023/07/29 08:26:01;;;;;;;12.68;3.72;;;;;;;;;;4350929;32;317158;-82
2023/07/29 08:28:28;;;;;;;5.82;4.05;;;;;;;;;;4364512;32;318128;-80
2023/07/29 08:30:56;;;;;;;3.40;2.78;;;;;;;;;;4338971;32;317220;-79
2023/07/29 08:33:23;;;;;;;3.15;2.47;;;;;;;;;;4356893;32;316712;-78
2023/07/29 08:35:49;;;;;;;6.22;2.90;;;;;;;;;;4340708;32;317251;-80
2023/07/29 08:38:16;;;;;;;11.35;3.30;;;;;;;;;;4351150;32;317516;-80
2023/07/29 08:40:47;;;;;;;6.97;3.45;;;;;;;;;;4351225;32;317878;-80
2023/07/29 08:43:17;;;;;;;9.65;3.33;;;;;;;;;;4337599;32;415350;-79
2023/07/29 08:45:45;;;;;;;6.20;3.28;;;;;;;;;;4351163;32;317000;-79
2023/07/29 08:48:17;;;;;;;4.60;3.15;;;;;;;;;;4338276;32;417734;-80
2023/07/29 08:50:45;;;;;;;7.12;2.95;;;;;;;;;;4339136;32;322219;-79
2023/07/29 08:53:12;;;;;;;7.28;2.67;;;;;;;;;;4340831;32;317554;-80
2023/07/29 08:55:40;;;;;;;6.97;2.70;;;;;;;;;;4353222;32;316471;-81
2023/07/29 08:58:07;;;;;;;4.68;2.58;;;;;;;;;;4341344;32;317238;-80
2023/07/29 09:00:35;;;;;;;3.53;2.53;;;;;;;;;;4351677;32;317585;-81
2023/07/29 09:03:06;;;;;;;4.32;2.33;;;;;;;;;;4341879;32;317225;-81
2023/07/29 09:05:35;;;;;;;4.72;2.25;;;;;;;;;;4354481;32;317305;-80
2023/07/29 09:08:03;;;;;;;4.62;2.28;;;;;;;;;;4350519;32;317308;-80
2023/07/29 09:10:30;;;;;;;4.18;2.30;;;;;;;;;;4340520;32;317357;-82
2023/07/29 09:12:57;;;;;;;3.22;2.35;;;;;;;;;;4339616;32;317505;-81
2023/07/29 09:15:28;;;;;;;8.85;2.60;;;;;;;;;;4329820;32;317087;-80
2023/07/29 09:17:57;;;;;;;11.98;4.78;;;;;;;;;;4340031;32;317505;-81
2023/07/29 09:20:27;;;;;;;3.42;2.12;;;;;;;;;;4339401;32;318547;-80
2023/07/29 09:22:58;;;;;;;4.43;2.15;;;;;;;;;;4348146;32;317246;-80
2023/07/29 09:25:26;;;;;;;11.50;2.87;;;;;;;;;;4342534;32;317650;-79
2023/07/29 09:27:53;;;;;;;12.45;2.42;;;;;;;;;;4351192;32;318358;-80
2023/07/29 09:30:19;;;;;;;3.08;1.83;;;;;;;;;;4342760;32;318263;-80
2023/07/29 09:32:46;;;;;;;4.18;2.03;;;;;;;;;;4352674;32;316558;-79
2023/07/29 09:35:13;;;;;;;7.45;2.33;;;;;;;;;;4344623;32;316627;-86
2023/07/29 09:37:40;;;;;;;6.37;1.95;;;;;;;;;;4354717;32;316625;-86
2023/07/29 09:40:16;;;;;;;4.05;2.28;;;;;;;;;;4345270;32;317213;-78
2023/07/29 09:42:49;;;;;;;2.97;2.00;;;;;;;;;;4352598;32;340071;-78
2023/07/29 09:45:21;;;;;;;6.05;2.03;;;;;;;;;;4343388;32;317376;-82
2023/07/29 09:47:49;;;;;;;7.60;2.47;;;;;;;;;;4353358;32;317456;-85
2023/07/29 09:50:16;;;;;;;7.85;1.80;;;;;;;;;;4341785;32;316581;-81
2023/07/29 09:52:43;;;;;;;4.15;2.55;;;;;;;;;;4352096;32;317122;-83
2023/07/29 09:55:13;;;;;;;2.33;1.75;;;;;;;;;;4343420;32;317520;-84
2023/07/29 09:57:40;;;;;;;1.35;1.12;;;;;;;;;;4353089;32;317398;-84
2023/07/29 10:00:10;;;;;;;5.40;2.08;;;;;;;;;;4333805;32;317168;-81
2023/07/29 10:02:38;;;;;;;3.83;1.87;;;;;;;;;;4343453;32;317815;-78
2023/07/29 10:05:06;;;;;;;2.17;1.67;;;;;;;;;;4342203;32;317692;-79
2023/07/29 10:07:34;;;;;;;2.80;1.77;;;;;;;;;;4352101;32;317341;-78
2023/07/29 10:10:03;;;;;;;2.47;1.50;;;;;;;;;;4343438;32;317452;-80
2023/07/29 10:12:32;;;;;;;2.40;1.48;;;;;;;;;;4363437;32;317029;-81
2023/07/29 10:15:01;;;;;;;2.78;1.58;;;;;;;;;;4359573;32;316611;-80
2023/07/29 10:17:28;;;;;;;2.45;1.60;;;;;;;;;;4369109;32;317669;-81
2023/07/29 10:19:56;;;;;;;5.53;2.10;;;;;;;;;;4347211;32;317348;-80
2023/07/29 10:22:28;;;;;;;2.78;1.67;;;;;;;;;;4367768;32;317044;-80
2023/07/29 10:24:58;;;;;;;4.72;1.37;;;;;;;;;;4355332;32;397208;-80
2023/07/29 10:27:26;;;;;;;2.45;1.50;;;;;;;;;;4356081;32;317149;-82
2023/07/29 10:29:56;;;;;;;2.37;1.80;;;;;;;;;;4344328;32;317920;-81
2023/07/29 10:32:26;;;;;;;5.03;1.90;;;;;;;;;;4352882;32;316548;-81
2023/07/29 10:34:53;;;;;;;5.25;2.50;;;;;;;;;;4344185;32;317193;-81
2023/07/29 10:37:20;;;;;;;3.37;1.98;;;;;;;;;;4352232;32;317479;-81
2023/07/29 10:39:54;;;;;;;3.62;1.87;;;;;;;;;;4349613;32;336722;-83
2023/07/29 10:42:22;;;;;;;2.72;2.00;;;;;;;;;;4330751;32;416508;-83
2023/07/29 10:44:50;;;;;;;2.47;1.85;;;;;;;;;;4354385;32;317401;-82
2023/07/29 10:47:20;;;;;;;2.72;1.70;;;;;;;;;;4355817;32;416348;-82
2023/07/29 10:49:48;;;;;;;2.92;1.70;;;;;;;;;;4368493;32;316527;-83
2023/07/29 10:52:16;;;;;;;3.22;1.75;;;;;;;;;;4358785;32;316762;-83
2023/07/29 10:54:43;;;;;;;3.90;1.92;;;;;;;;;;4360551;32;316771;-83
2023/07/29 10:57:15;;;;;;;6.72;1.87;;;;;;;;;;4340884;32;317633;-80
2023/07/29 10:59:42;;;;;;;1.80;1.42;;;;;;;;;;4338866;32;317215;-80
2023/07/29 11:02:19;;;;;;;3.50;1.95;;;;;;;;;;4328535;32;317279;-82
2023/07/29 11:04:51;;;;;;;3.45;2.33;;;;;;;;;;4338575;32;317461;-82
2023/07/29 11:07:29;;;;;;;7.85;2.40;;;;;;;;;;4335871;32;416557;-82
2023/07/29 11:10:00;;;;;;;2.65;1.77;;;;;;;;;;4342328;32;318221;-80
2023/07/29 11:12:47;;;;;;;3.33;2.12;;;;;;;;;;4352093;32;316945;-82
2023/07/29 11:15:22;;;;;;;3.55;2.00;;;;;;;;;;4342449;32;317356;-81
2023/07/29 11:17:52;;;;;;;2.62;2.15;;;;;;;;;;4347791;32;317342;-81
2023/07/29 11:20:21;;;;;;;3.97;2.00;;;;;;;;;;4338861;32;416877;-83
2023/07/29 11:22:48;;;;;;;4.50;2.40;;;;;;;;;;4355856;32;346661;-81
2023/07/29 11:25:16;;;;;;;4.68;2.70;;;;;;;;;;4337366;32;317329;-81
2023/07/29 11:27:43;;;;;;;5.25;2.50;;;;;;;;;;4337302;32;317914;-79
2023/07/29 11:30:12;;;;;;;2.55;2.28;;;;;;;;;;4332800;32;317453;-84
2023/07/29 11:32:40;;;;;;;3.22;2.47;;;;;;;;;;4354535;32;317108;-85
2023/07/29 11:35:10;;;;;;;3.80;2.45;;;;;;;;;;4349757;32;317524;-83
2023/07/29 11:37:38;;;;;;;3.15;2.05;;;;;;;;;;4343369;32;318041;-81
2023/07/29 11:40:06;;;;;;;2.70;2.50;;;;;;;;;;4337014;32;316808;-80
2023/07/29 11:42:33;;;;;;;3.05;2.17;;;;;;;;;;4352378;32;316850;-83
2023/07/29 11:45:00;;;;;;;4.45;2.10;;;;;;;;;;4331141;32;317512;-81
2023/07/29 11:47:27;;;;;;;4.03;2.60;;;;;;;;;;4346255;32;338070;-82
2023/07/29 11:49:54;;;;;;;3.33;2.47;;;;;;;;;;4337314;32;316560;-82
2023/07/29 11:52:23;;;;;;;2.97;2.22;;;;;;;;;;4347593;32;321082;-81
2023/07/29 11:54:50;;;;;;;6.30;2.50;;;;;;;;;;4349282;32;316456;-81
2023/07/29 11:57:18;;;;;;;2.83;1.87;;;;;;;;;;4337963;32;416659;-82
2023/07/29 11:59:45;;;;;;;3.10;2.80;;;;;;;;;;4351674;32;316690;-82
2023/07/29 12:02:14;;;;;;;2.53;2.17;;;;;;;;;;4342214;32;317192;-82
2023/07/29 12:04:42;;;;;;;3.90;2.70;;;;;;;;;;4352671;32;317801;-82
2023/07/29 12:07:09;;;;;;;2.47;1.92;;;;;;;;;;4331380;32;317336;-82
2023/07/29 12:09:38;;;;;;;5.22;2.72;;;;;;;;;;4341074;32;317298;-82
2023/07/29 12:12:06;;;;;;;3.95;2.20;;;;;;;;;;4335571;32;317123;-83
2023/07/29 12:14:33;;;;;;;2.45;2.25;;;;;;;;;;4337652;32;316618;-81
2023/07/29 12:17:01;;;;;;;3.50;2.35;;;;;;;;;;4328050;32;317630;-82
2023/07/29 12:19:33;;;;;;;3.47;2.20;;;;;;;;;;4335477;33;317252;-82
2023/07/29 12:21:59;;;;;;;6.37;2.00;;;;;;;;;;4341211;32;317648;-82
2023/07/29 12:24:26;;;;;;;2.50;2.30;;;;;;;;;;4351827;32;317285;-81
2023/07/29 12:26:54;;;;;;;3.47;2.72;;;;;;;;;;4341111;32;316664;-81
2023/07/29 12:29:21;;;;;;;4.47;2.03;;;;;;;;;;4351462;32;317317;-83
2023/07/29 12:31:48;;;;;;;3.30;2.60;;;;;;;;;;4352301;32;317541;-81
2023/07/29 12:34:19;;;;;;;4.72;2.67;;;;;;;;;;4342718;32;317251;-82
2023/07/29 12:36:48;;;;;;;2.80;2.40;;;;;;;;;;4351628;32;317466;-81
2023/07/29 12:39:19;;;;;;;6.35;2.85;;;;;;;;;;4341908;32;317601;-81
2023/07/29 12:41:46;;;;;;;3.45;2.20;;;;;;;;;;4351175;32;317407;-80
2023/07/29 12:44:14;;;;;;;3.20;2.60;;;;;;;;;;4343362;32;317059;-81
2023/07/29 12:46:41;;;;;;;4.78;3.20;;;;;;;;;;4354073;32;317848;-81
2023/07/29 12:49:08;;;;;;;4.70;2.83;;;;;;;;;;4344402;32;317374;-81
2023/07/29 12:51:36;;;;;;;3.60;2.83;;;;;;;;;;4354499;32;317750;-80
2023/07/29 12:54:03;;;;;;;3.22;2.62;;;;;;;;;;4341709;32;317316;-81
2023/07/29 12:56:30;;;;;;;4.07;3.03;;;;;;;;;;4339458;32;317410;-82
2023/07/29 12:58:57;;;;;;;5.25;3.00;;;;;;;;;;4329062;32;343814;-82
2023/07/29 13:01:25;;;;;;;3.85;2.35;;;;;;;;;;4344251;32;317072;-82
2023/07/29 13:03:52;;;;;;;5.90;3.60;;;;;;;;;;4338007;32;342351;-81
2023/07/29 13:06:19;;;;;;;7.95;2.95;;;;;;;;;;4362887;32;317342;-79
2023/07/29 13:08:46;;;;;;;11.32;3.37;;;;;;;;;;4357479;32;316833;-82
2023/07/29 13:11:13;;;;;;;4.62;2.53;;;;;;;;;;4345186;32;318278;-82
2023/07/29 13:13:40;;;;;;;4.60;2.78;;;;;;;;;;4355177;32;317108;-82
2023/07/29 13:16:06;;;;;;;3.00;2.35;;;;;;;;;;4344434;32;317570;-83
2023/07/29 13:18:34;;;;;;;4.12;3.17;;;;;;;;;;4353668;32;317529;-85
2023/07/29 13:21:02;;;;;;;5.93;3.12;;;;;;;;;;4343988;32;317714;-83
2023/07/29 13:23:29;;;;;;;4.80;2.90;;;;;;;;;;4353763;32;317601;-82
2023/07/29 13:25:58;;;;;;;3.42;2.37;;;;;;;;;;4345154;32;317384;-82
2023/07/29 13:28:25;;;;;;;4.07;3.30;;;;;;;;;;4354682;32;316562;-82
2023/07/29 13:30:52;;;;;;;3.05;2.50;;;;;;;;;;4346715;32;317258;-83
2023/07/29 13:33:18;;;;;;;3.22;2.80;;;;;;;;;;4353859;32;316614;-82
2023/07/29 13:35:46;;;;;;;4.03;2.85;;;;;;;;;;4353580;32;347754;-83
2023/07/29 13:38:13;;;;;;;5.80;2.55;;;;;;;;;;4344027;32;317287;-81
2023/07/29 13:40:40;;;;;;;4.32;2.95;;;;;;;;;;4354645;32;317548;-82
2023/07/29 13:43:07;;;;;;;7.70;3.35;;;;;;;;;;4344934;32;317235;-81
2023/07/29 13:45:34;;;;;;;7.53;2.60;;;;;;;;;;4353170;32;317028;-82
2023/07/29 13:48:01;;;;;;;4.05;3.05;;;;;;;;;;4344444;32;335020;-82
2023/07/29 13:50:28;;;;;;;4.57;3.05;;;;;;;;;;4354429;32;316614;-82
2023/07/29 13:52:56;;;;;;;6.97;3.28;;;;;;;;;;4343948;32;317175;-82
2023/07/29 13:55:23;;;;;;;2.55;2.20;;;;;;;;;;4354363;32;316765;-82
2023/07/29 13:57:49;;;;;;;3.30;2.70;;;;;;;;;;4353001;32;317787;-83
2023/07/29 14:00:16;;;;;;;9.95;3.50;;;;;;;;;;4344334;32;316553;-82
2023/07/29 14:02:43;;;;;;;4.30;3.00;;;;;;;;;;4354207;32;317335;-83
2023/07/29 14:05:11;;;;;;;3.10;2.40;;;;;;;;;;4344427;32;317638;-82
2023/07/29 14:07:38;;;;;;;3.12;2.80;;;;;;;;;;4354487;32;317678;-82
2023/07/29 14:10:07;;;;;;;8.25;3.30;;;;;;;;;;4344062;32;317238;-83
2023/07/29 14:12:34;;;;;;;7.47;2.97;;;;;;;;;;4354062;32;330618;-83
2023/07/29 14:15:02;;;;;;;4.95;2.87;;;;;;;;;;4343163;32;316809;-83
2023/07/29 14:17:28;;;;;;;15.60;3.42;;;;;;;;;;4353113;32;317432;-82
2023/07/29 14:19:55;;;;;;;4.47;3.10;;;;;;;;;;4340280;32;329238;-83
2023/07/29 14:22:22;;;;;;;4.68;3.05;;;;;;;;;;4354258;32;317006;-83
2023/07/29 14:24:48;;;;;;;5.65;3.40;;;;;;;;;;4352833;32;316597;-83
2023/07/29 14:27:17;;;;;;;5.22;3.08;;;;;;;;;;4343225;32;317152;-82
2023/07/29 14:29:44;;;;;;;3.42;2.83;;;;;;;;;;4353806;32;317366;-82
2023/07/29 14:32:10;;;;;;;4.53;3.10;;;;;;;;;;4342977;32;317098;-82